sensor_id;sensor_type;location;lat;lon;timestamp;P1;durP1;ratioP1;P2;durP2;ratioP2
64242;SDS011;50573;51.512;5.386;2023-04-01T00:06:27;10.32;;;3.40;;
64242;SDS011;50573;51.512;5.386;2023-04-01T00:16:31;13.35;;;3.40;;
64242;SDS011;50573;51.512;5.386;2023-04-01T00:26:35;9.35;;;3.20;;
64242;SDS011;50573;51.512;5.386;2023-04-01T00:36:38;10.57;;;2.67;;
64242;SDS011;50573;51.512;5.386;2023-04-01T00:46:43;10.15;;;3.85;;
64242;SDS011;50573;51.512;5.386;2023-04-01T00:56:46;3.93;;;2.87;;
64242;SDS011;50573;51.512;5.386;2023-04-01T01:07:02;7.88;;;4.13;;
64242;SDS011;50573;51.512;5.386;2023-04-01T01:17:14;8.90;;;4.55;;
64242;SDS011;50573;51.512;5.386;2023-04-01T01:27:26;8.40;;;5.18;;
64242;SDS011;50573;51.512;5.386;2023-04-01T01:37:33;8.30;;;6.40;;
64242;SDS011;50573;51.512;5.386;2023-04-01T01:47:36;11.95;;;10.40;;
64242;SDS011;50573;51.512;5.386;2023-04-01T01:57:42;14.60;;;10.38;;
64242;SDS011;50573;51.512;5.386;2023-04-01T02:07:51;13.80;;;10.00;;
64242;SDS011;50573;51.512;5.386;2023-04-01T02:18:01;18.08;;;13.35;;
64242;SDS011;50573;51.512;5.386;2023-04-01T02:28:06;25.60;;;15.13;;
64242;SDS011;50573;51.512;5.386;2023-04-01T02:38:13;26.27;;;16.42;;
64242;SDS011;50573;51.512;5.386;2023-04-01T02:48:17;29.75;;;18.70;;
64242;SDS011;50573;51.512;5.386;2023-04-01T02:58:23;29.50;;;18.30;;
64242;SDS011;50573;51.512;5.386;2023-04-01T03:08:26;33.40;;;18.57;;
64242;SDS011;50573;51.512;5.386;2023-04-01T03:18:30;28.92;;;17.15;;
64242;SDS011;50573;51.512;5.386;2023-04-01T03:28:33;28.97;;;17.40;;
64242;SDS011;50573;51.512;5.386;2023-04-01T03:38:38;24.02;;;15.32;;
64242;SDS011;50573;51.512;5.386;2023-04-01T03:48:42;24.83;;;15.55;;
64242;SDS011;50573;51.512;5.386;2023-04-01T03:58:46;21.25;;;12.25;;
64242;SDS011;50573;51.512;5.386;2023-04-01T04:08:50;11.60;;;9.02;;
64242;SDS011;50573;51.512;5.386;2023-04-01T04:18:55;13.90;;;10.13;;
64242;SDS011;50573;51.512;5.386;2023-04-01T04:28:58;14.43;;;9.07;;
64242;SDS011;50573;51.512;5.386;2023-04-01T04:39:03;10.73;;;8.05;;
64242;SDS011;50573;51.512;5.386;2023-04-01T04:49:08;9.88;;;6.68;;
64242;SDS011;50573;51.512;5.386;2023-04-01T04:59:13;7.35;;;6.40;;
64242;SDS011;50573;51.512;5.386;2023-04-01T05:09:23;8.85;;;6.57;;
64242;SDS011;50573;51.512;5.386;2023-04-01T05:19:28;7.05;;;6.13;;
64242;SDS011;50573;51.512;5.386;2023-04-01T05:29:31;8.80;;;5.57;;
64242;SDS011;50573;51.512;5.386;2023-04-01T05:39:40;6.85;;;5.78;;
64242;SDS011;50573;51.512;5.386;2023-04-01T05:49:44;10.27;;;6.93;;
64242;SDS011;50573;51.512;5.386;2023-04-01T05:59:48;14.10;;;8.23;;
64242;SDS011;50573;51.512;5.386;2023-04-01T06:09:51;13.07;;;8.23;;
64242;SDS011;50573;51.512;5.386;2023-04-01T06:19:57;18.17;;;10.00;;
64242;SDS011;50573;51.512;5.386;2023-04-01T06:30:12;13.85;;;9.82;;
64242;SDS011;50573;51.512;5.386;2023-04-01T06:40:39;18.83;;;12.35;;
64242;SDS011;50573;51.512;5.386;2023-04-01T06:50:54;27.80;;;15.07;;
64242;SDS011;50573;51.512;5.386;2023-04-01T07:01:41;28.63;;;18.27;;
64242;SDS011;50573;51.512;5.386;2023-04-01T07:11:48;29.10;;;19.73;;
64242;SDS011;50573;51.512;5.386;2023-04-01T07:22:25;32.72;;;20.98;;
64242;SDS011;50573;51.512;5.386;2023-04-01T07:32:45;30.60;;;21.75;;
64242;SDS011;50573;51.512;5.386;2023-04-01T07:42:57;34.13;;;20.95;;
64242;SDS011;50573;51.512;5.386;2023-04-01T07:53:38;39.03;;;20.87;;
64242;SDS011;50573;51.512;5.386;2023-04-01T08:03:54;31.58;;;21.75;;
64242;SDS011;50573;51.512;5.386;2023-04-01T13:58:30;20.25;;;14.13;;
64242;SDS011;50573;51.512;5.386;2023-04-01T14:08:58;13.70;;;10.63;;
64242;SDS011;50573;51.512;5.386;2023-04-01T14:19:36;11.45;;;9.98;;
64242;SDS011;50573;51.512;5.386;2023-04-01T14:30:12;11.15;;;9.50;;
64242;SDS011;50573;51.512;5.386;2023-04-01T14:40:28;16.55;;;12.63;;
64242;SDS011;50573;51.512;5.386;2023-04-01T15:21:44;20.08;;;15.15;;
64242;SDS011;50573;51.512;5.386;2023-04-01T15:31:55;19.58;;;16.23;;
64242;SDS011;50573;51.512;5.386;2023-04-01T15:42:11;24.13;;;16.83;;
64242;SDS011;50573;51.512;5.386;2023-04-01T15:52:36;19.35;;;16.30;;
64242;SDS011;50573;51.512;5.386;2023-04-01T16:02:47;17.75;;;14.32;;
64242;SDS011;50573;51.512;5.386;2023-04-01T16:12:57;20.23;;;15.10;;
64242;SDS011;50573;51.512;5.386;2023-04-01T16:23:26;22.20;;;15.77;;
64242;SDS011;50573;51.512;5.386;2023-04-01T16:33:44;20.13;;;14.98;;
64242;SDS011;50573;51.512;5.386;2023-04-01T16:43:50;26.23;;;17.58;;
64242;SDS011;50573;51.512;5.386;2023-04-01T16:54:02;22.92;;;16.33;;
64242;SDS011;50573;51.512;5.386;2023-04-01T17:04:12;27.08;;;18.23;;
64242;SDS011;50573;51.512;5.386;2023-04-01T17:14:23;32.00;;;16.92;;
64242;SDS011;50573;51.512;5.386;2023-04-01T17:24:36;22.17;;;13.07;;
64242;SDS011;50573;51.512;5.386;2023-04-01T17:34:53;14.90;;;10.48;;
64242;SDS011;50573;51.512;5.386;2023-04-01T17:45:08;16.67;;;10.85;;
64242;SDS011;50573;51.512;5.386;2023-04-01T17:55:28;9.52;;;8.05;;
64242;SDS011;50573;51.512;5.386;2023-04-01T18:05:51;10.30;;;7.93;;
64242;SDS011;50573;51.512;5.386;2023-04-01T18:16:10;9.85;;;7.47;;
64242;SDS011;50573;51.512;5.386;2023-04-01T18:26:37;10.50;;;8.65;;
64242;SDS011;50573;51.512;5.386;2023-04-01T18:36:46;10.02;;;8.48;;
64242;SDS011;50573;51.512;5.386;2023-04-01T18:46:55;9.18;;;7.22;;
64242;SDS011;50573;51.512;5.386;2023-04-01T18:57:10;10.95;;;8.10;;
64242;SDS011;50573;51.512;5.386;2023-04-01T19:07:39;13.02;;;10.35;;
64242;SDS011;50573;51.512;5.386;2023-04-01T19:17:49;11.82;;;9.70;;
64242;SDS011;50573;51.512;5.386;2023-04-01T19:28:02;15.48;;;12.10;;
64242;SDS011;50573;51.512;5.386;2023-04-01T19:38:21;12.20;;;10.52;;
64242;SDS011;50573;51.512;5.386;2023-04-01T19:48:34;10.20;;;9.07;;
64242;SDS011;50573;51.512;5.386;2023-04-01T19:58:49;11.27;;;10.15;;
64242;SDS011;50573;51.512;5.386;2023-04-01T20:19:33;12.82;;;11.20;;
64242;SDS011;50573;51.512;5.386;2023-04-01T20:29:41;17.23;;;12.65;;
64242;SDS011;50573;51.512;5.386;2023-04-01T20:50:38;13.50;;;11.38;;
64242;SDS011;50573;51.512;5.386;2023-04-01T21:00:52;16.03;;;13.50;;
64242;SDS011;50573;51.512;5.386;2023-04-01T21:11:09;15.32;;;12.30;;
64242;SDS011;50573;51.512;5.386;2023-04-01T21:21:23;13.63;;;12.17;;
64242;SDS011;50573;51.512;5.386;2023-04-01T21:31:43;10.60;;;8.80;;
64242;SDS011;50573;51.512;5.386;2023-04-01T21:42:01;14.25;;;11.75;;
64242;SDS011;50573;51.512;5.386;2023-04-01T21:52:22;14.48;;;12.93;;
64242;SDS011;50573;51.512;5.386;2023-04-01T22:02:47;14.50;;;12.73;;
64242;SDS011;50573;51.512;5.386;2023-04-01T22:13:27;17.77;;;13.38;;
64242;SDS011;50573;51.512;5.386;2023-04-01T22:23:42;19.30;;;14.50;;
64242;SDS011;50573;51.512;5.386;2023-04-01T22:33:51;22.55;;;18.25;;
64242;SDS011;50573;51.512;5.386;2023-04-01T22:44:02;25.95;;;21.05;;
64242;SDS011;50573;51.512;5.386;2023-04-01T22:54:10;24.25;;;19.05;;
64242;SDS011;50573;51.512;5.386;2023-04-01T23:04:18;24.60;;;20.20;;
64242;SDS011;50573;51.512;5.386;2023-04-01T23:24:50;20.05;;;15.80;;
64242;SDS011;50573;51.512;5.386;2023-04-01T23:34:59;18.60;;;14.15;;
64242;SDS011;50573;51.512;5.386;2023-04-01T23:45:03;16.38;;;13.85;;
64242;SDS011;50573;51.512;5.386;2023-04-01T23:55:17;16.38;;;13.23;;
